Time;durP1;ratioP1;P1;durP2;ratioP2;P2;SDS_P1;SDS_P2;PMS_P1;PMS_P2;Temp;Humidity;BMP_temperature;BMP_pressure;BME280_temperature;BME280_humidity;BME280_pressure;Samples;Min_cycle;Max_cycle;Signal;HPM_P1;HPM_P2
2022/08/22 00:01:04;;;;;;;;;;;16.20;99.90;;;;;;4928186;29;20393;-65
2022/08/22 00:03:48;;;;;;;;;;;16.10;99.90;;;;;;4992276;28;19932;-66
2022/08/22 00:06:23;;;;;;;;;;;16.10;99.90;;;;;;5029760;28;19925;-65
2022/08/22 00:08:54;;;;;;;;;;;16.10;99.90;;;;;;5012187;28;20299;-66
2022/08/22 00:11:27;;;;;;;;;;;16.10;99.90;;;;;;5024777;28;19929;-66
2022/08/22 00:14:06;;;;;;;;;;;16.10;99.90;;;;;;5030032;28;20393;-65
2022/08/22 00:16:37;;;;;;;;;;;16.00;99.90;;;;;;5029469;28;19924;-66
2022/08/22 00:19:21;;;;;;;;;;;16.00;99.90;;;;;;5003607;28;19944;-66
2022/08/22 00:21:52;;;;;;;;;;;15.90;99.90;;;;;;5030152;28;19921;-66
2022/08/22 00:24:40;;;;;;;;;;;15.70;99.90;;;;;;5008437;28;21319;-66
2022/08/22 00:27:06;;;;;;;;;;;15.60;99.90;;;;;;5027187;28;19929;-65
2022/08/22 00:29:46;;;;;;;;;;;15.40;99.90;;;;;;5008745;28;19945;-66
2022/08/22 00:32:12;;;;;;;;;;;15.30;99.90;;;;;;5011738;28;19925;-66
2022/08/22 00:34:48;;;;;;;;;;;15.40;99.90;;;;;;5030497;28;19921;-66
2022/08/22 00:37:18;;;;;;;;;;;15.40;99.90;;;;;;5028923;28;19936;-65
2022/08/22 00:39:43;;;;;;;;;;;15.30;99.90;;;;;;5028724;28;19925;-66
2022/08/22 00:42:28;;;;;;;;;;;15.30;99.90;;;;;;5013194;28;19948;-65
2022/08/22 00:44:56;;;;;;;;;;;15.20;99.90;;;;;;5009403;28;19935;-66
2022/08/22 00:47:34;;;;;;;;;;;15.30;99.90;;;;;;5026245;28;19925;-66
2022/08/22 00:50:16;;;;;;;;;;;15.30;99.90;;;;;;5005501;28;20402;-66
2022/08/22 00:52:53;;;;;;;;;;;15.30;99.90;;;;;;5027009;28;19929;-66
2022/08/22 00:55:25;;;;;;;;;;;15.30;99.90;;;;;;5013208;28;20437;-66
2022/08/22 00:58:09;;;;;;;;;;;15.40;99.90;;;;;;5029933;28;20285;-66
2022/08/22 01:00:40;;;;;;;;;;;15.30;99.90;;;;;;5023465;28;19945;-66
2022/08/22 01:03:21;;;;;;;;;;;15.20;99.90;;;;;;5029679;28;19931;-66
2022/08/22 01:05:53;;;;;;;;;;;15.20;99.90;;;;;;5029123;28;19928;-66
2022/08/22 01:08:28;;;;;;;;;;;15.10;99.90;;;;;;5031652;28;19925;-66
2022/08/22 01:10:53;;;;;;;;;;;15.20;99.90;;;;;;5000024;28;19922;-65
2022/08/22 01:13:39;;;;;;;;;;;15.20;99.90;;;;;;5032349;28;19936;-66
2022/08/22 01:16:17;;;;;;;;;;;15.20;99.90;;;;;;5031185;28;19928;-66
2022/08/22 01:18:42;;;;;;;;;;;15.30;99.90;;;;;;5032401;28;19932;-66
2022/08/22 01:21:10;;;;;;;;;;;15.30;99.90;;;;;;5030505;28;19925;-66
2022/08/22 01:23:39;;;;;;;;;;;15.30;99.90;;;;;;5030708;28;19979;-66
2022/08/22 01:26:23;;;;;;;;;;;15.40;99.90;;;;;;5018562;28;20279;-66
2022/08/22 01:28:54;;;;;;;;;;;15.40;99.90;;;;;;5014534;28;20017;-66
2022/08/22 01:31:35;;;;;;;;;;;15.40;99.90;;;;;;5030956;28;19984;-66
2022/08/22 01:34:03;;;;;;;;;;;15.40;99.90;;;;;;5005471;28;20244;-66
2022/08/22 01:36:47;;;;;;;;;;;15.50;99.90;;;;;;5034014;28;19925;-66
2022/08/22 01:39:13;;;;;;;;;;;15.40;99.90;;;;;;5031259;28;19925;-65
2022/08/22 01:41:47;;;;;;;;;;;15.50;99.90;;;;;;5014590;28;20399;-65
2022/08/22 01:44:22;;;;;;;;;;;15.40;99.90;;;;;;5015263;28;19929;-66
2022/08/22 01:46:53;;;;;;;;;;;15.40;99.90;;;;;;5015427;28;20314;-66
2022/08/22 01:49:26;;;;;;;;;;;15.40;99.90;;;;;;5015205;28;19925;-66
2022/08/22 01:52:00;;;;;;;;;;;15.50;99.90;;;;;;5011354;28;20003;-66
2022/08/22 01:54:34;;;;;;;;;;;15.40;99.90;;;;;;5031691;28;19925;-66
2022/08/22 01:57:01;;;;;;;;;;;15.50;99.90;;;;;;5015128;28;19929;-65
2022/08/22 01:59:32;;;;;;;;;;;15.40;99.90;;;;;;5015139;28;19925;-66
2022/08/22 02:02:00;;;;;;;;;;;15.40;99.90;;;;;;5029342;28;20266;-66
2022/08/22 02:04:26;;;;;;;;;;;15.40;99.90;;;;;;5031578;28;19929;-66
2022/08/22 02:07:12;;;;;;;;;;;15.40;99.90;;;;;;5013402;28;19925;-65
2022/08/22 02:09:57;;;;;;;;;;;15.30;99.90;;;;;;5024574;28;19958;-66
2022/08/22 02:12:36;;;;;;;;;;;15.40;99.90;;;;;;5029232;28;19921;-66
2022/08/22 02:15:06;;;;;;;;;;;15.30;99.90;;;;;;4997921;28;20284;-66
2022/08/22 02:17:34;;;;;;;;;;;15.30;99.90;;;;;;5034546;28;20010;-66
2022/08/22 02:20:16;;;;;;;;;;;15.30;99.90;;;;;;5011244;28;19929;-66
2022/08/22 02:23:00;;;;;;;;;;;15.30;99.90;;;;;;5032990;28;19928;-66
2022/08/22 02:25:32;;;;;;;;;;;15.30;99.90;;;;;;5028846;28;20306;-65
2022/08/22 02:27:57;;;;;;;;;;;15.20;99.90;;;;;;5021175;28;20431;-66
2022/08/22 02:30:49;;;;;;;;;;;15.20;99.90;;;;;;5033299;28;20011;-66
2022/08/22 02:33:22;;;;;;;;;;;15.10;99.90;;;;;;5013074;28;19994;-66
2022/08/22 02:35:53;;;;;;;;;;;15.10;99.90;;;;;;5032895;28;19993;-65
2022/08/22 02:38:18;;;;;;;;;;;15.10;99.90;;;;;;5031596;28;19921;-66
2022/08/22 02:40:49;;;;;;;;;;;15.10;99.90;;;;;;5026195;28;19929;-66
2022/08/22 02:43:18;;;;;;;;;;;15.00;99.90;;;;;;5031443;28;19972;-66
2022/08/22 02:45:43;;;;;;;;;;;15.00;99.90;;;;;;5029733;28;19970;-66
2022/08/22 02:48:18;;;;;;;;;;;14.90;99.90;;;;;;5015011;28;20019;-66
2022/08/22 02:50:51;;;;;;;;;;;14.90;99.90;;;;;;5028578;28;19921;-66
2022/08/22 02:53:37;;;;;;;;;;;14.90;99.90;;;;;;5031898;28;19932;-66
2022/08/22 02:56:15;;;;;;;;;;;14.80;99.90;;;;;;5031403;28;19921;-66
2022/08/22 02:58:40;;;;;;;;;;;14.80;99.90;;;;;;5030836;28;20478;-66
2022/08/22 03:01:09;;;;;;;;;;;14.80;99.90;;;;;;5010583;28;19921;-66
2022/08/22 03:03:39;;;;;;;;;;;14.80;99.90;;;;;;5030642;28;20339;-65
2022/08/22 03:06:25;;;;;;;;;;;14.80;99.90;;;;;;5031611;28;20286;-66
2022/08/22 03:09:17;;;;;;;;;;;14.80;99.90;;;;;;5013684;28;19921;-66
2022/08/22 03:11:44;;;;;;;;;;;14.70;99.90;;;;;;5011287;28;20294;-66
2022/08/22 03:14:25;;;;;;;;;;;14.70;99.90;;;;;;5010656;28;20366;-66
2022/08/22 03:16:53;;;;;;;;;;;14.70;99.90;;;;;;5007796;28;19965;-66
2022/08/22 03:19:26;;;;;;;;;;;14.70;99.90;;;;;;5010405;28;19986;-66
2022/08/22 03:22:01;;;;;;;;;;;14.70;99.90;;;;;;5011203;28;19925;-66
2022/08/22 03:24:32;;;;;;;;;;;14.70;99.90;;;;;;5014960;28;19932;-65
2022/08/22 03:27:04;;;;;;;;;;;14.60;99.90;;;;;;5030737;28;19960;-66
2022/08/22 03:29:33;;;;;;;;;;;14.50;99.90;;;;;;5031657;28;19929;-65
2022/08/22 03:32:10;;;;;;;;;;;14.30;99.90;;;;;;5031953;28;19964;-66
2022/08/22 03:34:36;;;;;;;;;;;14.30;99.90;;;;;;5025078;28;19933;-66
2022/08/22 03:37:23;;;;;;;;;;;14.20;99.90;;;;;;5031561;28;19928;-65
2022/08/22 03:40:21;;;;;;;;;;;14.10;99.90;;;;;;5031548;28;20363;-66
2022/08/22 03:43:14;;;;;;;;;;;14.10;99.90;;;;;;5012559;28;20294;-66
2022/08/22 03:45:42;;;;;;;;;;;14.20;99.90;;;;;;5032015;28;19929;-66
2022/08/22 03:48:11;;;;;;;;;;;14.20;99.90;;;;;;5030418;28;19927;-66
2022/08/22 03:50:56;;;;;;;;;;;14.30;99.90;;;;;;5013333;28;19925;-65
2022/08/22 03:53:40;;;;;;;;;;;14.30;99.90;;;;;;5028634;28;19925;-65
2022/08/22 03:56:18;;;;;;;;;;;14.30;99.90;;;;;;5013240;28;19921;-65
2022/08/22 03:58:51;;;;;;;;;;;14.40;99.90;;;;;;5015938;28;19932;-65
2022/08/22 04:01:36;;;;;;;;;;;14.40;99.90;;;;;;5012372;28;19925;-65
2022/08/22 04:04:08;;;;;;;;;;;14.30;99.90;;;;;;5010930;28;19929;-65
2022/08/22 04:06:39;;;;;;;;;;;14.30;99.90;;;;;;5031134;28;19928;-65
2022/08/22 04:09:23;;;;;;;;;;;14.30;99.90;;;;;;5030025;28;19921;-65
2022/08/22 04:12:09;;;;;;;;;;;14.40;99.90;;;;;;5029670;28;19921;-65
2022/08/22 04:14:43;;;;;;;;;;;14.50;99.90;;;;;;4999487;28;20299;-65
2022/08/22 04:17:24;;;;;;;;;;;14.50;99.90;;;;;;5029041;28;19971;-65
2022/08/22 04:20:05;;;;;;;;;;;14.50;99.90;;;;;;5025554;28;19988;-66
2022/08/22 04:22:49;;;;;;;;;;;14.60;99.90;;;;;;5009251;28;20290;-65
2022/08/22 04:25:24;;;;;;;;;;;14.60;99.90;;;;;;5029175;28;19972;-65
2022/08/22 04:28:22;;;;;;;;;;;14.70;99.90;;;;;;5029127;28;19929;-65
2022/08/22 04:30:58;;;;;;;;;;;14.70;99.90;;;;;;4978321;28;19972;-66
2022/08/22 04:33:24;;;;;;;;;;;14.70;99.90;;;;;;5012979;28;19932;-65
2022/08/22 04:36:10;;;;;;;;;;;14.70;99.90;;;;;;5030376;28;19921;-65
2022/08/22 04:38:42;;;;;;;;;;;14.80;99.90;;;;;;5011931;28;20012;-65
2022/08/22 04:41:10;;;;;;;;;;;14.80;99.90;;;;;;5012298;28;19940;-65
2022/08/22 04:43:36;;;;;;;;;;;14.80;99.90;;;;;;5030175;28;20267;-66
2022/08/22 04:46:06;;;;;;;;;;;14.80;99.90;;;;;;5011094;28;19921;-65
2022/08/22 04:48:37;;;;;;;;;;;14.80;99.90;;;;;;5011265;28;19933;-65
2022/08/22 04:51:21;;;;;;;;;;;14.80;99.90;;;;;;5029407;28;19932;-65
2022/08/22 04:53:54;;;;;;;;;;;14.80;99.90;;;;;;5039341;22;19982;-69
2022/08/22 04:56:22;;;;;;;;;;;14.90;99.90;;;;;;5032157;28;19994;-68
2022/08/22 04:58:53;;;;;;;;;;;14.80;99.90;;;;;;5013655;28;19932;-68
2022/08/22 05:01:20;;;;;;;;;;;14.80;99.90;;;;;;5010199;28;19975;-68
2022/08/22 05:03:50;;;;;;;;;;;14.90;99.90;;;;;;5031397;28;20466;-68
2022/08/22 05:06:17;;;;;;;;;;;14.90;99.90;;;;;;5031572;28;19971;-68
2022/08/22 05:08:45;;;;;;;;;;;14.90;99.90;;;;;;5013684;28;19921;-68
2022/08/22 05:11:11;;;;;;;;;;;14.90;99.90;;;;;;5013583;28;20579;-68
2022/08/22 05:13:37;;;;;;;;;;;14.90;99.90;;;;;;5013616;28;19928;-68
2022/08/22 05:16:04;;;;;;;;;;;14.90;99.90;;;;;;5031165;28;19968;-68
2022/08/22 05:18:50;;;;;;;;;;;14.90;99.90;;;;;;5007346;28;20123;-68
2022/08/22 05:21:19;;;;;;;;;;;15.00;99.90;;;;;;5021452;28;19928;-68
2022/08/22 05:23:53;;;;;;;;;;;15.00;99.90;;;;;;5013356;28;20051;-68
2022/08/22 05:26:19;;;;;;;;;;;15.00;99.90;;;;;;5021640;28;19921;-68
2022/08/22 05:28:55;;;;;;;;;;;15.00;99.90;;;;;;5013700;28;19925;-68
2022/08/22 05:31:23;;;;;;;;;;;15.00;99.90;;;;;;5031502;28;19955;-68
2022/08/22 05:34:05;;;;;;;;;;;15.10;99.90;;;;;;5010574;28;19925;-68
2022/08/22 05:36:34;;;;;;;;;;;15.20;99.90;;;;;;5026475;28;19929;-68
2022/08/22 05:39:02;;;;;;;;;;;15.20;99.90;;;;;;5030596;28;20359;-68
2022/08/22 05:41:30;;;;;;;;;;;15.30;99.90;;;;;;5031173;28;19928;-68
2022/08/22 05:43:56;;;;;;;;;;;15.30;99.90;;;;;;5031112;28;19925;-68
2022/08/22 05:46:23;;;;;;;;;;;15.30;99.90;;;;;;5031496;28;20011;-68
2022/08/22 05:48:54;;;;;;;;;;;15.30;99.90;;;;;;5030808;28;19932;-68
2022/08/22 05:51:24;;;;;;;;;;;15.40;99.90;;;;;;5030839;28;19970;-68
2022/08/22 05:53:54;;;;;;;;;;;15.40;99.90;;;;;;5031723;28;19925;-68
2022/08/22 05:56:25;;;;;;;;;;;15.40;99.90;;;;;;5034503;28;19925;-68
2022/08/22 05:58:58;;;;;;;;;;;15.50;99.90;;;;;;5034255;28;20561;-68
2022/08/22 06:01:43;;;;;;;;;;;15.50;99.90;;;;;;5027926;28;19925;-68
2022/08/22 06:04:14;;;;;;;;;;;15.60;99.90;;;;;;5026789;28;19968;-68
2022/08/22 06:06:49;;;;;;;;;;;15.60;99.90;;;;;;5033882;28;19921;-68
2022/08/22 06:09:21;;;;;;;;;;;15.70;99.90;;;;;;5034041;28;20394;-68
2022/08/22 06:12:05;;;;;;;;;;;15.80;99.90;;;;;;5034203;28;19940;-68
2022/08/22 06:14:40;;;;;;;;;;;15.90;99.90;;;;;;5013459;28;19936;-68
2022/08/22 06:17:17;;;;;;;;;;;16.00;99.90;;;;;;5033878;28;19931;-68
2022/08/22 06:19:45;;;;;;;;;;;16.10;99.90;;;;;;5017531;28;19928;-68
2022/08/22 06:22:13;;;;;;;;;;;16.20;99.90;;;;;;5006867;28;20008;-68
2022/08/22 06:24:39;;;;;;;;;;;16.30;99.90;;;;;;5000029;28;20416;-68
2022/08/22 06:27:11;;;;;;;;;;;16.50;99.90;;;;;;5023254;28;19921;-68
2022/08/22 06:29:40;;;;;;;;;;;16.60;99.90;;;;;;5022917;28;19928;-68
2022/08/22 06:32:10;;;;;;;;;;;16.60;99.90;;;;;;5023484;28;20421;-68
2022/08/22 06:34:38;;;;;;;;;;;16.80;99.90;;;;;;5020901;28;19922;-68
2022/08/22 06:37:05;;;;;;;;;;;16.90;99.90;;;;;;5030319;28;19935;-68
2022/08/22 06:39:35;;;;;;;;;;;17.00;99.90;;;;;;5035685;28;19935;-69
2022/08/22 06:42:03;;;;;;;;;;;17.10;99.90;;;;;;5038448;28;19964;-68
2022/08/22 06:44:30;;;;;;;;;;;17.20;99.90;;;;;;5025941;28;19948;-68
2022/08/22 06:46:57;;;;;;;;;;;17.40;99.90;;;;;;5031146;28;20366;-68
2022/08/22 06:49:24;;;;;;;;;;;17.40;99.90;;;;;;5033347;28;19925;-68
2022/08/22 06:51:50;;;;;;;;;;;17.50;99.90;;;;;;5033483;28;19948;-68
2022/08/22 06:54:17;;;;;;;;;;;17.50;99.90;;;;;;5031465;28;19960;-68
2022/08/22 06:56:45;;;;;;;;;;;17.60;99.90;;;;;;5033260;28;20020;-69
2022/08/22 06:59:13;;;;;;;;;;;17.60;99.90;;;;;;5030634;28;19929;-68
2022/08/22 07:02:02;;;;;;;;;;;17.70;99.90;;;;;;5031110;28;19929;-68
2022/08/22 07:04:27;;;;;;;;;;;17.70;99.90;;;;;;5030492;28;20280;-68
2022/08/22 07:06:55;;;;;;;;;;;17.70;99.90;;;;;;5033586;28;20008;-69
2022/08/22 07:09:31;;;;;;;;;;;17.70;99.90;;;;;;5014077;28;19959;-69
2022/08/22 07:11:58;;;;;;;;;;;17.80;99.90;;;;;;5033313;28;19983;-69
2022/08/22 07:14:29;;;;;;;;;;;17.90;99.90;;;;;;5015368;28;19925;-69
2022/08/22 07:16:55;;;;;;;;;;;18.10;99.90;;;;;;5010337;28;20013;-68
2022/08/22 07:19:23;;;;;;;;;;;18.10;99.90;;;;;;5015128;28;20007;-69
2022/08/22 07:21:48;;;;;;;;;;;18.30;99.90;;;;;;5014337;28;19925;-70
2022/08/22 07:24:16;;;;;;;;;;;18.40;99.90;;;;;;5013472;28;19975;-69
2022/08/22 07:26:47;;;;;;;;;;;18.50;99.90;;;;;;5014973;28;19925;-69
2022/08/22 07:29:19;;;;;;;;;;;18.60;99.90;;;;;;5031534;28;19928;-69
2022/08/22 07:31:50;;;;;;;;;;;18.70;99.90;;;;;;5015089;28;19956;-69
2022/08/22 07:34:27;;;;;;;;;;;18.80;99.90;;;;;;5028146;28;19925;-69
2022/08/22 07:37:05;;;;;;;;;;;18.90;99.90;;;;;;5027210;28;19952;-68
2022/08/22 07:39:51;;;;;;;;;;;19.00;99.90;;;;;;5019639;28;19933;-69
2022/08/22 07:42:20;;;;;;;;;;;19.00;99.90;;;;;;5021059;28;19922;-69
2022/08/22 07:44:53;;;;;;;;;;;19.10;99.90;;;;;;5009026;28;19925;-68
2022/08/22 07:47:19;;;;;;;;;;;19.20;99.90;;;;;;5031283;28;19921;-69
2022/08/22 07:49:50;;;;;;;;;;;19.30;99.90;;;;;;5027099;28;19925;-69
2022/08/22 07:52:16;;;;;;;;;;;19.30;99.90;;;;;;5028508;28;19956;-68
2022/08/22 07:54:46;;;;;;;;;;;19.50;99.90;;;;;;5029921;28;19948;-68
2022/08/22 07:57:16;;;;;;;;;;;19.50;99.90;;;;;;5030893;28;19968;-68
2022/08/22 07:59:47;;;;;;;;;;;19.60;99.90;;;;;;5031191;28;19951;-68
2022/08/22 08:02:14;;;;;;;;;;;19.70;99.90;;;;;;5015799;28;19924;-68
2022/08/22 08:04:40;;;;;;;;;;;19.70;99.90;;;;;;5031585;28;20367;-68
2022/08/22 08:07:07;;;;;;;;;;;19.70;99.90;;;;;;5034179;28;20032;-69
2022/08/22 08:09:34;;;;;;;;;;;19.90;99.90;;;;;;5029388;28;19929;-69
2022/08/22 08:12:02;;;;;;;;;;;19.80;99.90;;;;;;5029219;28;19925;-69
2022/08/22 08:14:28;;;;;;;;;;;19.90;99.90;;;;;;5010512;28;19964;-68
2022/08/22 08:16:54;;;;;;;;;;;19.90;99.90;;;;;;5029924;28;19921;-69
2022/08/22 08:19:19;;;;;;;;;;;20.00;99.90;;;;;;5028603;28;20318;-69
2022/08/22 08:21:49;;;;;;;;;;;20.10;99.90;;;;;;5028111;28;19921;-68
2022/08/22 08:24:19;;;;;;;;;;;20.30;99.90;;;;;;5028002;28;20012;-69
2022/08/22 08:29:42;;;;;;;;;;;20.60;99.90;;;;;;5030472;28;20003;-68
2022/08/22 08:32:09;;;;;;;;;;;20.70;99.90;;;;;;5029754;28;20007;-69
2022/08/22 08:34:36;;;;;;;;;;;20.90;99.90;;;;;;5012395;28;20020;-69
2022/08/22 08:37:10;;;;;;;;;;;20.90;99.90;;;;;;5028614;28;19921;-69
2022/08/22 08:39:47;;;;;;;;;;;21.00;99.90;;;;;;5030085;28;19928;-69
2022/08/22 08:42:24;;;;;;;;;;;21.00;99.90;;;;;;5030781;28;19921;-69
2022/08/22 08:45:00;;;;;;;;;;;21.20;99.90;;;;;;5028193;28;20458;-69
2022/08/22 08:47:28;;;;;;;;;;;21.30;99.90;;;;;;5029962;28;19925;-69
2022/08/22 08:50:12;;;;;;;;;;;21.40;99.90;;;;;;5030855;28;20000;-69
2022/08/22 08:52:46;;;;;;;;;;;21.40;99.90;;;;;;5030738;28;19928;-69
2022/08/22 08:55:18;;;;;;;;;;;21.60;99.90;;;;;;5027316;28;19928;-69
2022/08/22 08:57:55;;;;;;;;;;;21.70;99.90;;;;;;5030479;28;19921;-69
2022/08/22 09:00:26;;;;;;;;;;;21.80;99.90;;;;;;5030694;28;19925;-69
2022/08/22 09:02:52;;;;;;;;;;;22.00;99.90;;;;;;5030190;28;19925;-69
2022/08/22 09:05:24;;;;;;;;;;;22.20;99.90;;;;;;5007012;28;20294;-69
2022/08/22 09:07:49;;;;;;;;;;;22.30;99.90;;;;;;5017957;28;19929;-69
2022/08/22 09:10:21;;;;;;;;;;;22.20;99.90;;;;;;5019337;28;19925;-69
2022/08/22 09:12:46;;;;;;;;;;;22.00;99.90;;;;;;5029885;28;20020;-69
2022/08/22 09:15:20;;;;;;;;;;;22.10;99.90;;;;;;5029562;28;20008;-69
2022/08/22 09:18:04;;;;;;;;;;;22.10;99.90;;;;;;5028457;28;19964;-69
2022/08/22 09:20:48;;;;;;;;;;;22.30;99.90;;;;;;5012225;28;19968;-69
2022/08/22 09:23:29;;;;;;;;;;;22.30;99.90;;;;;;5028452;28;19994;-68
2022/08/22 09:26:09;;;;;;;;;;;22.50;99.90;;;;;;5019684;28;20004;-69
2022/08/22 09:28:48;;;;;;;;;;;22.60;99.90;;;;;;5013751;28;20325;-68
2022/08/22 09:31:14;;;;;;;;;;;22.70;99.90;;;;;;5031399;28;21657;-68
2022/08/22 09:33:45;;;;;;;;;;;22.50;99.90;;;;;;5016726;28;19928;-69
2022/08/22 09:36:19;;;;;;;;;;;22.30;99.90;;;;;;5014142;28;20396;-69
2022/08/22 09:38:44;;;;;;;;;;;22.20;99.90;;;;;;5007899;28;19925;-69
2022/08/22 09:41:13;;;;;;;;;;;22.10;99.90;;;;;;5028402;28;19948;-69
2022/08/22 09:43:44;;;;;;;;;;;22.00;99.90;;;;;;5017792;28;19944;-69
2022/08/22 09:46:13;;;;;;;;;;;22.10;99.90;;;;;;5023193;28;19975;-69
2022/08/22 09:48:45;;;;;;;;;;;22.30;99.90;;;;;;5028014;28;19955;-68
2022/08/22 09:51:17;;;;;;;;;;;22.20;99.90;;;;;;5005339;28;20020;-69
2022/08/22 09:53:51;;;;;;;;;;;22.30;99.90;;;;;;5031707;28;20311;-68
2022/08/22 09:56:20;;;;;;;;;;;22.40;99.90;;;;;;5029983;28;19921;-68
2022/08/22 09:58:51;;;;;;;;;;;22.50;99.90;;;;;;5006567;28;20395;-69
2022/08/22 10:01:17;;;;;;;;;;;22.50;99.90;;;;;;5001510;28;22527;-69
2022/08/22 10:03:48;;;;;;;;;;;22.50;99.90;;;;;;5004015;28;19925;-69
2022/08/22 10:06:19;;;;;;;;;;;22.60;99.90;;;;;;5021979;28;19928;-69
2022/08/22 10:08:54;;;;;;;;;;;22.60;99.40;;;;;;5002371;28;19928;-69
2022/08/22 10:11:20;;;;;;;;;;;22.60;99.00;;;;;;5004472;28;19931;-68
2022/08/22 10:13:45;;;;;;;;;;;22.50;99.90;;;;;;5015682;28;19929;-69
2022/08/22 10:16:11;;;;;;;;;;;22.50;99.60;;;;;;5030060;28;19999;-68
2022/08/22 10:18:43;;;;;;;;;;;22.50;99.90;;;;;;5029582;28;19936;-68
2022/08/22 10:21:21;;;;;;;;;;;22.50;98.90;;;;;;5031440;28;19921;-68
2022/08/22 10:23:46;;;;;;;;;;;22.60;98.20;;;;;;5030596;28;19987;-70
2022/08/22 10:26:18;;;;;;;;;;;22.60;98.10;;;;;;5011251;28;19925;-69
2022/08/22 10:28:47;;;;;;;;;;;22.60;98.50;;;;;;5025357;28;19932;-69
2022/08/22 10:31:31;;;;;;;;;;;22.60;99.10;;;;;;5027193;28;19925;-69
2022/08/22 10:33:57;;;;;;;;;;;22.80;98.70;;;;;;5033991;28;19925;-69
2022/08/22 10:36:30;;;;;;;;;;;22.80;96.90;;;;;;5014354;28;19928;-69
2022/08/22 10:38:58;;;;;;;;;;;23.00;97.60;;;;;;5032986;28;19921;-69
2022/08/22 10:41:42;;;;;;;;;;;23.10;97.60;;;;;;5012063;28;20016;-69
2022/08/22 10:44:15;;;;;;;;;;;23.00;98.20;;;;;;5033978;28;19932;-69
2022/08/22 10:46:52;;;;;;;;;;;23.10;97.80;;;;;;5033177;28;19933;-69
2022/08/22 10:49:24;;;;;;;;;;;23.10;97.70;;;;;;5032216;28;19932;-69
2022/08/22 10:51:50;;;;;;;;;;;;;;;;;;5033250;28;20413;-69
2022/08/22 10:54:18;;;;;;;;;;;23.30;96.90;;;;;;5015455;28;19929;-69
2022/08/22 10:56:44;;;;;;;;;;;23.50;97.00;;;;;;5029721;28;19921;-69
2022/08/22 10:59:09;;;;;;;;;;;23.40;95.50;;;;;;5032206;28;19925;-69
2022/08/22 11:01:38;;;;;;;;;;;23.40;96.30;;;;;;5015531;28;20005;-68
2022/08/22 11:04:10;;;;;;;;;;;23.40;97.20;;;;;;5014117;28;20349;-69
2022/08/22 11:06:45;;;;;;;;;;;23.40;97.40;;;;;;5028622;28;19921;-69
2022/08/22 11:09:29;;;;;;;;;;;23.40;96.70;;;;;;5027565;28;20354;-69
2022/08/22 11:11:59;;;;;;;;;;;23.50;96.20;;;;;;5012786;28;19971;-69
2022/08/22 11:14:44;;;;;;;;;;;23.40;95.90;;;;;;5031580;28;19921;-68
2022/08/22 11:17:09;;;;;;;;;;;23.40;96.10;;;;;;5027044;28;19943;-68
2022/08/22 11:19:44;;;;;;;;;;;23.50;96.20;;;;;;5014392;28;20472;-68
2022/08/22 11:22:18;;;;;;;;;;;23.30;95.60;;;;;;5032038;28;19925;-69
2022/08/22 11:25:04;;;;;;;;;;;23.40;95.90;;;;;;5027331;28;19929;-69
2022/08/22 11:27:35;;;;;;;;;;;23.50;95.90;;;;;;5031657;28;19925;-68
2022/08/22 11:30:04;;;;;;;;;;;23.60;95.20;;;;;;5028735;28;19929;-68
2022/08/22 11:32:38;;;;;;;;;;;23.70;94.90;;;;;;5030825;28;19948;-68
2022/08/22 11:35:19;;;;;;;;;;;23.90;95.10;;;;;;5027273;28;19925;-68
2022/08/22 11:37:58;;;;;;;;;;;24.00;94.70;;;;;;5003086;28;19976;-68
2022/08/22 11:40:36;;;;;;;;;;;24.30;95.10;;;;;;5032321;28;20307;-68
2022/08/22 11:43:04;;;;;;;;;;;24.20;94.80;;;;;;5030239;28;20023;-69
2022/08/22 11:45:35;;;;;;;;;;;24.20;94.80;;;;;;5030988;28;19938;-68
2022/08/22 11:48:06;;;;;;;;;;;24.50;93.60;;;;;;5025986;28;20306;-68
2022/08/22 11:50:35;;;;;;;;;;;24.50;92.80;;;;;;5032220;28;19925;-68
2022/08/22 11:53:07;;;;;;;;;;;24.70;92.70;;;;;;5005996;28;19933;-68
2022/08/22 11:55:56;;;;;;;;;;;24.70;92.10;;;;;;5007675;28;20004;-68
2022/08/22 11:58:25;;;;;;;;;;;24.30;91.80;;;;;;5010939;28;19926;-68
2022/08/22 12:00:57;;;;;;;;;;;24.30;92.90;;;;;;5008328;28;20256;-68
2022/08/22 12:03:32;;;;;;;;;;;24.40;92.80;;;;;;5001588;28;19925;-68
2022/08/22 12:06:15;;;;;;;;;;;24.40;91.30;;;;;;5007967;28;19925;-68
2022/08/22 12:08:45;;;;;;;;;;;24.40;92.40;;;;;;5006831;28;19929;-68
2022/08/22 12:11:20;;;;;;;;;;;24.30;91.50;;;;;;5010339;28;19922;-68
2022/08/22 12:14:00;;;;;;;;;;;24.40;92.50;;;;;;5010666;28;19985;-68
2022/08/22 12:16:26;;;;;;;;;;;24.40;91.40;;;;;;5005443;28;19925;-68
2022/08/22 12:18:59;;;;;;;;;;;24.30;92.40;;;;;;5001604;28;20367;-68
2022/08/22 12:21:40;;;;;;;;;;;24.40;92.20;;;;;;5001616;28;19921;-68
2022/08/22 12:24:24;;;;;;;;;;;24.50;91.40;;;;;;5008098;28;19929;-68
2022/08/22 12:26:58;;;;;;;;;;;24.50;92.50;;;;;;5009826;28;20479;-69
2022/08/22 12:29:32;;;;;;;;;;;24.40;91.80;;;;;;5010010;28;19922;-70
2022/08/22 12:31:57;;;;;;;;;;;24.30;92.30;;;;;;5009274;28;19933;-71
2022/08/22 12:34:22;;;;;;;;;;;24.30;92.50;;;;;;4991734;28;19932;-71
2022/08/22 12:36:54;;;;;;;;;;;24.60;92.50;;;;;;5011158;28;20020;-71
2022/08/22 12:39:29;;;;;;;;;;;24.90;91.90;;;;;;5008150;28;19925;-70
2022/08/22 12:42:13;;;;;;;;;;;25.10;91.70;;;;;;5009976;28;19921;-70
2022/08/22 12:44:50;;;;;;;;;;;25.10;92.00;;;;;;5008789;28;19925;-70
2022/08/22 12:47:29;;;;;;;;;;;25.20;91.90;;;;;;5005213;28;19930;-70
2022/08/22 12:50:04;;;;;;;;;;;25.00;91.60;;;;;;4990342;28;19968;-71
2022/08/22 12:52:42;;;;;;;;;;;24.70;92.30;;;;;;5003007;28;20015;-70
2022/08/22 12:55:20;;;;;;;;;;;24.60;91.60;;;;;;5011403;28;19921;-70
2022/08/22 12:57:53;;;;;;;;;;;24.50;92.40;;;;;;5012812;28;19932;-70
2022/08/22 13:00:39;;;;;;;;;;;24.30;92.50;;;;;;5015356;28;19928;-71
2022/08/22 13:03:21;;;;;;;;;;;24.30;93.40;;;;;;5010108;28;19979;-71
2022/08/22 13:05:47;;;;;;;;;;;24.40;93.00;;;;;;5012053;28;19964;-71
2022/08/22 13:08:31;;;;;;;;;;;24.50;92.70;;;;;;4996584;28;19975;-71
2022/08/22 13:11:02;;;;;;;;;;;24.80;92.20;;;;;;5007539;28;19976;-71
2022/08/22 13:13:33;;;;;;;;;;;24.70;92.90;;;;;;5003243;28;19983;-70
2022/08/22 13:16:01;;;;;;;;;;;24.80;92.30;;;;;;5029025;28;20290;-70
2022/08/22 13:18:31;;;;;;;;;;;24.90;92.10;;;;;;4995383;28;19921;-70
2022/08/22 13:20:57;;;;;;;;;;;25.10;92.00;;;;;;5011569;28;19948;-70
2022/08/22 13:23:32;;;;;;;;;;;24.90;91.40;;;;;;5008693;28;20362;-70
2022/08/22 13:25:58;;;;;;;;;;;24.90;92.10;;;;;;5007275;28;20004;-71
2022/08/22 13:28:24;;;;;;;;;;;25.00;92.20;;;;;;5003341;28;20015;-70
2022/08/22 13:30:52;;;;;;;;;;;24.90;92.00;;;;;;5019077;28;19932;-71
2022/08/22 13:33:23;;;;;;;;;;;24.90;92.20;;;;;;5007750;28;20279;-71
2022/08/22 13:35:52;;;;;;;;;;;24.80;92.30;;;;;;5016096;28;19932;-71
2022/08/22 13:38:28;;;;;;;;;;;24.90;92.50;;;;;;5015435;28;20012;-71
2022/08/22 13:40:56;;;;;;;;;;;25.00;92.60;;;;;;5004493;28;19925;-71
2022/08/22 13:43:29;;;;;;;;;;;25.20;91.90;;;;;;5017407;28;20346;-71
2022/08/22 13:45:56;;;;;;;;;;;25.30;92.20;;;;;;5017274;28;19978;-71
2022/08/22 13:48:25;;;;;;;;;;;25.50;91.70;;;;;;5000517;28;19960;-70
2022/08/22 13:51:00;;;;;;;;;;;25.60;91.00;;;;;;5026113;28;19935;-70
2022/08/22 13:53:31;;;;;;;;;;;25.60;91.30;;;;;;4998073;28;19976;-71
2022/08/22 13:56:04;;;;;;;;;;;25.80;91.00;;;;;;5016731;28;19944;-70
2022/08/22 13:58:44;;;;;;;;;;;25.80;91.00;;;;;;5016804;28;19929;-71
2022/08/22 14:01:15;;;;;;;;;;;26.00;90.90;;;;;;5002995;28;21795;-70
2022/08/22 14:03:45;;;;;;;;;;;26.10;90.80;;;;;;5027177;28;20012;-71
2022/08/22 14:06:21;;;;;;;;;;;25.60;90.80;;;;;;4999237;28;19921;-71
2022/08/22 14:08:47;;;;;;;;;;;25.70;91.30;;;;;;5015570;28;19935;-71
2022/08/22 14:11:26;;;;;;;;;;;25.70;91.20;;;;;;4999436;28;20008;-71
2022/08/22 14:13:54;;;;;;;;;;;25.80;90.50;;;;;;5017233;28;19925;-71
2022/08/22 14:16:22;;;;;;;;;;;25.60;90.70;;;;;;5011597;28;19983;-71
2022/08/22 14:18:49;;;;;;;;;;;25.70;90.90;;;;;;5031351;28;19997;-71
2022/08/22 14:21:15;;;;;;;;;;;25.60;91.30;;;;;;5014534;28;20398;-70
2022/08/22 14:23:41;;;;;;;;;;;25.60;91.50;;;;;;5017060;28;19940;-70
2022/08/22 14:26:07;;;;;;;;;;;25.60;91.20;;;;;;5014732;28;20424;-70
2022/08/22 14:28:34;;;;;;;;;;;25.70;91.00;;;;;;5032907;28;19929;-70
2022/08/22 14:31:02;;;;;;;;;;;25.70;90.40;;;;;;5014257;28;19928;-70
2022/08/22 14:33:43;;;;;;;;;;;25.90;90.60;;;;;;5027410;28;19980;-70
2022/08/22 14:36:15;;;;;;;;;;;25.80;90.70;;;;;;5013226;28;19932;-67
2022/08/22 14:38:44;;;;;;;;;;;26.10;90.40;;;;;;5012096;28;19956;-67
2022/08/22 14:41:23;;;;;;;;;;;26.30;88.10;;;;;;5012797;28;19921;-67
2022/08/22 14:44:10;;;;;;;;;;;26.20;88.60;;;;;;5004361;28;19929;-67
2022/08/22 14:46:56;;;;;;;;;;;26.20;89.00;;;;;;5013994;28;19928;-67
2022/08/22 14:49:45;;;;;;;;;;;26.20;90.70;;;;;;5031705;28;19933;-67
2022/08/22 14:52:24;;;;;;;;;;;26.30;88.00;;;;;;5017530;28;19929;-67
2022/08/22 14:55:02;;;;;;;;;;;26.10;89.60;;;;;;5032727;28;19925;-67